LFST/SXB METAR and TAF weather

Enter ICAO airport designator
Station Type Date Time Source
LFST METAR 2020/04/07 16:00 UTC NOAA

LFST 071600Z AUTO 03011KT CAVOK 25/03 Q1025 NOSIG


Station Type Date Time Source
LFST Decoded METAR 2020/04/07 16:00 UTC NOAA

Strasbourg, France (LFST) 48-33N 007-38E 154M
Apr 07, 2020 - 12:00 PM EDT / 2020.04.07 1600 UTC
Wind: from the NNE (030 degrees) at 13 MPH (11 KT):0
Visibility: greater than 7 mile(s):0
Temperature: 77 F (25 C)
Dew Point: 37 F (3 C)
Relative Humidity: 23%
Pressure (altimeter): 30.27 in. Hg (1025 hPa)
ob: LFST 071600Z AUTO 03011KT CAVOK 25/03 Q1025 NOSIG
cycle: 16

Station Type Date Time Source
LFST TAF 2020/04/07 12:47 UTC NOAA

TAF LFST 071100Z 0712/0812 01005KT CAVOK PROB40
TEMPO 0715/0718 08008KT

Example: see airport list